Strona główna
METAR-TAF:

METAR-TAF

Lotnisko :

Skyhaven Airport

Rochester, New Hampshire, Stany Zjednoczone

Szerokość geograficzna: 43-16-41N, Długość geograficzna: 070-55-20W, wysokość: 98 m

Aktualna obserwacja pogody

Raport powstał 26 minut temu, godzina 02:12 UTC
Wiatr 11 kt od północno-północny wschód w porywach dochodzący do 18 kt
Temperatura 7°C
Wilgotność 93%
Ciśnienie 1013 hPa
Widzialność: 14.5 km
Mało chmury na wysokości 800 ft
Zachmurzenie całkowite na wysokości 1300 ft
słaby deszcz

METAR: KDAW 040212Z AUTO 02011G18KT 9SM -RA FEW008 OVC013 07/06 A2991 RMK AO2 P0000 T00670056

czas: 22:38 (02:38 UTC)


TAF: brakujący

Obserwacja i prognoza pogody dla ponad 4000 lotnisk (raport METAR i TAF).

Dostępne stacje oznaczono żółtymi i czerwonymi punktami na mapie.

Najedź kursorem aby zobaczyć nazwę stacji.

Kliknij aby zobaczyć obserwacje i prognozy pogody.

Aby zmienić mapę: kliknij na zielony przycisk z czarnym krzyżykiem, aby powiększyć; na zielony przycisk z myślnikiem, aby pomniejszyć; na zielone strzałki, aby przejść do map sąsiednich.


METAR-TAF: